Time;durP1;ratioP1;P1;durP2;ratioP2;P2;SDS_P1;SDS_P2;PMS_P1;PMS_P2;Temp;Humidity;BMP_temperature;BMP_pressure;BME280_temperature;BME280_humidity;BME280_pressure;Samples;Min_cycle;Max_cycle;Signal;HPM_P1;HPM_P2
2022/07/30 00:02:17;;;;;;;;;;;;;;;19.60;82.33;100463.09;4996165;28;1832;-84
2022/07/30 00:04:42;;;;;;;;;;;;;;;19.40;83.86;100458.34;5003262;28;1508;-83
2022/07/30 00:07:07;;;;;;;;;;;;;;;19.52;83.29;100465.97;4999156;28;1529;-84
2022/07/30 00:09:32;;;;;;;;;;;;;;;19.48;83.24;100465.03;5005402;28;1266;-84
2022/07/30 00:11:57;;;;;;;;;;;;;;;19.43;82.86;100467.97;4998027;28;1521;-84
2022/07/30 00:14:23;;;;;;;;;;;;;;;19.35;82.98;100461.34;4996847;28;1973;-84
2022/07/30 00:16:48;;;;;;;;;;;;;;;19.34;82.71;100454.16;5000244;28;1573;-84
2022/07/30 00:19:13;;;;;;;;;;;;;;;19.23;82.95;100442.66;5000645;28;1561;-84
2022/07/30 00:21:38;;;;;;;;;;;;;;;19.27;83.23;100460.28;4998857;28;1589;-84
2022/07/30 00:24:03;;;;;;;;;;;;;;;19.29;83.18;100457.16;4999279;28;1910;-84
2022/07/30 00:26:29;;;;;;;;;;;;;;;19.27;83.74;100462.22;4999955;28;1398;-84
2022/07/30 00:28:54;;;;;;;;;;;;;;;19.30;83.33;100460.75;5000073;28;1620;-84
2022/07/30 00:31:19;;;;;;;;;;;;;;;19.33;82.58;100473.94;4998362;28;1905;-84
2022/07/30 00:33:44;;;;;;;;;;;;;;;19.26;83.46;100485.59;5000971;28;1948;-83
2022/07/30 00:36:09;;;;;;;;;;;;;;;19.23;82.80;100487.06;4997349;28;1987;-84
2022/07/30 00:38:34;;;;;;;;;;;;;;;19.17;83.74;100482.06;5000179;28;1502;-84
2022/07/30 00:40:59;;;;;;;;;;;;;;;19.10;83.33;100482.63;4999661;28;1572;-84
2022/07/30 00:43:25;;;;;;;;;;;;;;;19.17;83.48;100485.66;4996948;28;1548;-84
2022/07/30 00:45:50;;;;;;;;;;;;;;;19.08;83.32;100476.59;5000646;28;1698;-84
2022/07/30 00:48:15;;;;;;;;;;;;;;;19.20;83.49;100479.44;5000183;28;1377;-84
2022/07/30 00:50:41;;;;;;;;;;;;;;;19.23;83.79;100481.50;5000337;28;1519;-84
2022/07/30 00:53:06;;;;;;;;;;;;;;;19.19;83.93;100486.13;4998100;28;1616;-84
2022/07/30 00:55:32;;;;;;;;;;;;;;;19.12;84.32;100477.53;4998563;28;1879;-84
2022/07/30 00:57:57;;;;;;;;;;;;;;;19.09;83.65;100485.72;4998119;28;1418;-84
2022/07/30 01:00:22;;;;;;;;;;;;;;;19.07;84.24;100480.50;4999141;28;1533;-84
2022/07/30 01:02:47;;;;;;;;;;;;;;;19.09;84.77;100480.16;4998533;28;1651;-84
2022/07/30 01:05:13;;;;;;;;;;;;;;;19.13;84.30;100486.69;4996626;28;1557;-84
2022/07/30 01:07:38;;;;;;;;;;;;;;;19.21;84.40;100485.81;5000631;28;1265;-84
2022/07/30 01:10:04;;;;;;;;;;;;;;;19.06;83.56;100481.66;4998859;28;1687;-84
2022/07/30 01:12:30;;;;;;;;;;;;;;;18.94;85.03;100481.59;5015584;28;1575;-84
2022/07/30 01:14:57;;;;;;;;;;;;;;;18.96;84.89;100484.84;5000017;28;1973;-84
2022/07/30 01:17:22;;;;;;;;;;;;;;;19.00;84.42;100483.00;4996869;28;1667;-84
2022/07/30 01:19:51;;;;;;;;;;;;;;;18.97;83.87;100480.13;5000298;28;1342;-84
2022/07/30 01:22:19;;;;;;;;;;;;;;;18.82;84.41;100487.03;4990267;28;1552;-84
2022/07/30 01:25:02;;;;;;;;;;;;;;;18.87;85.64;100481.31;4999307;28;1683;-84
2022/07/30 01:27:33;;;;;;;;;;;;;;;18.93;85.50;100484.69;4995790;28;1513;-84
2022/07/30 01:30:00;;;;;;;;;;;;;;;18.94;85.18;100489.91;4996651;28;1934;-84
2022/07/30 01:32:26;;;;;;;;;;;;;;;18.91;84.29;100476.72;4999281;28;1533;-84
2022/07/30 01:34:54;;;;;;;;;;;;;;;18.90;84.30;100483.41;4999467;28;1939;-84
2022/07/30 01:37:19;;;;;;;;;;;;;;;18.88;85.14;100474.63;4997775;28;1631;-84
2022/07/30 01:39:45;;;;;;;;;;;;;;;18.88;84.82;100478.19;5001531;28;1537;-84
2022/07/30 01:42:10;;;;;;;;;;;;;;;18.85;85.54;100476.09;4998771;28;1519;-84
2022/07/30 01:44:37;;;;;;;;;;;;;;;18.68;84.55;100470.66;4998765;28;1516;-84
2022/07/30 01:47:02;;;;;;;;;;;;;;;18.62;85.18;100468.44;4997463;28;1561;-84
2022/07/30 01:49:28;;;;;;;;;;;;;;;18.69;84.61;100471.47;5001794;28;1420;-84
2022/07/30 01:51:53;;;;;;;;;;;;;;;18.65;84.72;100473.28;4998458;28;1578;-84
2022/07/30 01:54:20;;;;;;;;;;;;;;;18.64;86.00;100471.66;5000603;28;1965;-84
2022/07/30 01:56:46;;;;;;;;;;;;;;;18.74;86.02;100485.94;4998892;28;1500;-83
2022/07/30 01:59:13;;;;;;;;;;;;;;;18.70;84.53;100473.91;5000977;28;1268;-84
2022/07/30 02:01:38;;;;;;;;;;;;;;;18.48;86.37;100469.44;5000447;28;1528;-84
2022/07/30 02:04:03;;;;;;;;;;;;;;;18.48;85.70;100465.84;4998856;28;1933;-84
2022/07/30 02:06:33;;;;;;;;;;;;;;;18.62;85.53;100469.25;4999585;28;1331;-84
2022/07/30 02:09:00;;;;;;;;;;;;;;;18.62;84.48;100476.75;4997884;28;1644;-84
2022/07/30 02:14:22;;;;;;;;;;;;;;;18.66;84.64;100472.13;4995872;28;1562;-83
2022/07/30 02:16:49;;;;;;;;;;;;;;;18.65;84.64;100481.59;5010118;28;1526;-84
2022/07/30 02:19:15;;;;;;;;;;;;;;;18.61;86.02;100470.38;4993471;28;1684;-83
2022/07/30 02:21:51;;;;;;;;;;;;;;;18.47;85.44;100476.13;4996396;28;1825;-83
2022/07/30 02:24:22;;;;;;;;;;;;;;;18.28;87.17;100486.00;4996370;28;1835;-84
2022/07/30 02:26:49;;;;;;;;;;;;;;;18.29;87.24;100482.88;4991117;28;1565;-84
2022/07/30 02:29:15;;;;;;;;;;;;;;;18.17;86.91;100490.28;5010338;28;1558;-84
2022/07/30 02:31:40;;;;;;;;;;;;;;;18.29;87.94;100496.72;4993400;28;1568;-84
2022/07/30 02:34:07;;;;;;;;;;;;;;;18.38;86.33;100496.69;4997851;28;1379;-83
2022/07/30 02:36:34;;;;;;;;;;;;;;;18.46;86.35;100496.66;5000502;28;1879;-83
2022/07/30 02:39:01;;;;;;;;;;;;;;;18.48;86.75;100488.00;5005592;28;1574;-84
2022/07/30 02:41:28;;;;;;;;;;;;;;;18.42;86.58;100504.03;5007172;28;1726;-83
2022/07/30 02:43:53;;;;;;;;;;;;;;;18.37;86.53;100504.19;5018358;28;1628;-84
2022/07/30 02:46:20;;;;;;;;;;;;;;;18.37;86.52;100503.41;5005468;28;1669;-84
2022/07/30 02:48:46;;;;;;;;;;;;;;;18.45;86.58;100495.06;5006212;28;1814;-84
2022/07/30 02:51:14;;;;;;;;;;;;;;;18.33;87.41;100500.47;5006459;28;1628;-84
2022/07/30 02:53:41;;;;;;;;;;;;;;;18.36;86.41;100497.06;5004447;28;1593;-83
2022/07/30 02:56:08;;;;;;;;;;;;;;;18.38;86.28;100502.25;5022365;28;1878;-84
2022/07/30 02:58:34;;;;;;;;;;;;;;;18.32;86.99;100501.63;5002263;28;1308;-84
2022/07/30 03:01:01;;;;;;;;;;;;;;;18.26;86.52;100502.16;5007785;28;1646;-83
2022/07/30 03:05:56;;;;;;;;;;;;;;;18.26;87.97;100513.22;4992872;28;1401;-90
2022/07/30 03:08:22;;;;;;;;;;;;;;;18.20;87.38;100507.06;4993608;28;1224;-89
2022/07/30 03:10:48;;;;;;;;;;;;;;;18.20;86.85;100504.28;4993206;28;1188;-90
2022/07/30 03:13:16;;;;;;;;;;;;;;;18.31;86.62;100505.53;5010246;28;1215;-89
2022/07/30 03:15:45;;;;;;;;;;;;;;;18.23;87.39;100513.88;5012517;28;1941;-91
2022/07/30 03:18:12;;;;;;;;;;;;;;;18.11;87.08;100517.34;5000163;28;1239;-90
2022/07/30 03:20:58;;;;;;;;;;;;;;;18.14;88.46;100517.50;4999645;28;1204;-90
2022/07/30 03:23:36;;;;;;;;;;;;;;;18.08;87.82;100518.00;5000859;28;1391;-90
2022/07/30 03:26:08;;;;;;;;;;;;;;;18.00;88.81;100524.38;4999369;28;1263;-90
2022/07/30 03:28:35;;;;;;;;;;;;;;;18.12;87.73;100525.31;4994412;28;1291;-90
2022/07/30 03:31:04;;;;;;;;;;;;;;;18.08;87.76;100531.84;4993654;28;1375;-90
2022/07/30 03:33:30;;;;;;;;;;;;;;;18.21;88.69;100527.25;4993414;28;1355;-89
2022/07/30 03:35:56;;;;;;;;;;;;;;;18.28;87.77;100533.94;4993261;28;1898;-89
2022/07/30 03:38:22;;;;;;;;;;;;;;;18.25;88.62;100534.56;4993565;28;1355;-89
2022/07/30 03:40:48;;;;;;;;;;;;;;;18.24;87.70;100538.50;4993124;28;1251;-90
2022/07/30 03:43:13;;;;;;;;;;;;;;;18.00;88.10;100536.28;4993547;28;1467;-90
2022/07/30 03:45:43;;;;;;;;;;;;;;;17.99;89.45;100537.41;4993420;28;1394;-90
2022/07/30 03:48:12;;;;;;;;;;;;;;;18.12;87.94;100544.72;4997353;28;1275;-90
2022/07/30 03:50:38;;;;;;;;;;;;;;;18.08;88.12;100540.97;4996815;28;1248;-90
2022/07/30 03:53:29;;;;;;;;;;;;;;;;;;;;;
2022/07/30 03:56:06;;;;;;;;;;;;;;;18.09;88.33;100541.78;4997432;28;1993;-89
2022/07/30 03:59:05;;;;;;;;;;;;;;;;;;;;;
2022/07/30 04:01:30;;;;;;;;;;;;;;;18.15;88.49;100537.69;4993860;28;1570;-89
2022/07/30 04:04:05;;;;;;;;;;;;;;;18.12;88.44;100541.13;4994929;28;1293;-91
2022/07/30 04:06:42;;;;;;;;;;;;;;;17.94;88.32;100545.91;4996157;28;1200;-90
2022/07/30 04:09:33;;;;;;;;;;;;;;;18.00;90.10;100549.31;4996085;28;1646;-90
2022/07/30 04:12:12;;;;;;;;;;;;;;;18.06;89.06;100548.81;5008529;28;1276;-90
2022/07/30 04:14:45;;;;;;;;;;;;;;;18.05;88.76;100549.13;4991482;28;1898;-91
2022/07/30 04:17:37;;;;;;;;;;;;;;;18.02;88.61;100555.34;4996336;28;1410;-89
2022/07/30 04:20:11;;;;;;;;;;;;;;;18.11;89.44;100559.72;4996172;28;1283;-90
2022/07/30 04:22:38;;;;;;;;;;;;;;;18.08;88.04;100556.78;4996398;28;1381;-90
2022/07/30 04:34:47;;;;;;;;;;;;;;;17.97;89.53;100578.47;4975567;28;1961;-89
2022/07/30 04:37:16;;;;;;;;;;;;;;;17.94;91.10;100572.78;4977087;28;1268;-89
2022/07/30 04:39:41;;;;;;;;;;;;;;;17.93;89.88;100576.69;4996609;28;1350;-89
2022/07/30 04:42:06;;;;;;;;;;;;;;;18.02;89.74;100581.09;4996387;28;1525;-90
2022/07/30 04:45:01;;;;;;;;;;;;;;;17.89;89.90;100578.47;4995692;28;1378;-89
2022/07/30 04:47:52;;;;;;;;;;;;;;;17.75;90.97;100587.78;4997017;28;1334;-89
2022/07/30 04:50:33;;;;;;;;;;;;;;;17.79;90.65;100587.94;4996727;28;1814;-90
2022/07/30 04:56:36;;;;;;;;;;;;;;;17.90;90.88;100592.00;4997157;28;1961;-90
2022/07/30 05:12:55;;;;;;;;;;;;;;;17.74;91.93;100601.94;4976067;28;1165;-92
2022/07/30 05:15:43;;;;;;;;;;;;;;;;;;;;;
2022/07/30 05:21:27;;;;;;;;;;;;;;;17.84;90.71;100600.81;4977108;28;1460;-90
2022/07/30 05:23:52;;;;;;;;;;;;;;;17.65;91.79;100596.41;4956891;28;1549;-90
2022/07/30 05:26:19;;;;;;;;;;;;;;;17.71;92.02;100600.63;4975925;28;1421;-92
2022/07/30 05:28:44;;;;;;;;;;;;;;;17.76;91.14;100600.50;4959434;28;1474;-89
2022/07/30 05:31:12;;;;;;;;;;;;;;;17.67;91.90;100604.41;4975546;28;1261;-89
2022/07/30 05:33:37;;;;;;;;;;;;;;;17.75;91.93;100601.63;4975926;28;1301;-90
2022/07/30 05:36:03;;;;;;;;;;;;;;;17.76;90.45;100599.69;4975527;28;1902;-89
2022/07/30 05:38:28;;;;;;;;;;;;;;;17.77;91.56;100598.53;4975847;28;1176;-89
2022/07/30 05:40:55;;;;;;;;;;;;;;;17.78;91.92;100608.44;4975616;28;1271;-89
2022/07/30 05:52:43;;;;;;;;;;;;;;;17.86;91.09;100612.38;4974604;28;605;-89
2022/07/30 05:58:21;;;;;;;;;;;;;;;;;;;;;
2022/07/30 06:00:59;;;;;;;;;;;;;;;17.95;91.73;100608.44;4975773;28;1513;-90
2022/07/30 06:03:29;;;;;;;;;;;;;;;17.94;92.70;100601.31;4975431;28;1443;-91
2022/07/30 06:27:51;;;;;;;;;;;;;;;17.94;92.00;100606.84;4938699;29;1188;-90
2022/07/30 06:30:16;;;;;;;;;;;;;;;18.02;91.96;100607.97;4946563;29;1669;-89
2022/07/30 06:32:44;;;;;;;;;;;;;;;18.07;92.82;100602.25;4959742;28;1355;-90
2022/07/30 06:35:18;;;;;;;;;;;;;;;18.09;92.70;100602.75;4976230;28;1938;-90
2022/07/30 06:37:44;;;;;;;;;;;;;;;18.06;91.71;100603.38;4973548;28;1395;-90
2022/07/30 06:40:12;;;;;;;;;;;;;;;18.06;92.83;100606.97;4975697;28;1260;-89
2022/07/30 06:42:37;;;;;;;;;;;;;;;18.12;91.72;100605.66;4975657;28;1188;-90
2022/07/30 06:45:03;;;;;;;;;;;;;;;18.13;91.96;100603.69;4975910;28;1273;-88
2022/07/30 06:47:28;;;;;;;;;;;;;;;18.17;92.18;100612.19;4974081;28;1257;-89
2022/07/30 06:49:56;;;;;;;;;;;;;;;18.26;92.12;100602.72;4973450;28;1745;-88
2022/07/30 06:52:22;;;;;;;;;;;;;;;18.33;92.25;100608.56;4974120;28;1355;-89
2022/07/30 06:54:47;;;;;;;;;;;;;;;18.40;92.28;100608.84;4974430;28;1969;-89
2022/07/30 06:57:14;;;;;;;;;;;;;;;18.43;91.39;100610.16;4975710;28;857;-89
2022/07/30 06:59:39;;;;;;;;;;;;;;;18.39;92.16;100612.78;4974679;28;1141;-89
2022/07/30 07:02:04;;;;;;;;;;;;;;;18.38;92.50;100605.59;4974845;28;1243;-89
2022/07/30 07:04:31;;;;;;;;;;;;;;;18.39;91.50;100600.88;4974414;28;1209;-89
2022/07/30 07:06:56;;;;;;;;;;;;;;;18.46;91.28;100603.94;4974799;28;1200;-89
2022/07/30 07:09:21;;;;;;;;;;;;;;;18.45;90.75;100596.78;4974647;28;1251;-89
2022/07/30 07:11:46;;;;;;;;;;;;;;;18.50;89.65;100600.19;4975231;28;1188;-89
2022/07/30 07:14:11;;;;;;;;;;;;;;;18.48;90.07;100602.47;4974905;28;1286;-89
2022/07/30 07:16:37;;;;;;;;;;;;;;;18.50;90.54;100596.59;4975038;28;1906;-90
2022/07/30 07:19:02;;;;;;;;;;;;;;;18.52;91.36;100605.41;4976218;28;1381;-89
2022/07/30 07:21:34;;;;;;;;;;;;;;;18.53;90.48;100602.31;4980754;28;1457;-89
2022/07/30 07:24:07;;;;;;;;;;;;;;;18.58;91.63;100603.28;4981514;28;1221;-88
2022/07/30 07:26:36;;;;;;;;;;;;;;;18.57;90.57;100605.25;4980720;28;1430;-89
2022/07/30 07:29:04;;;;;;;;;;;;;;;18.59;90.61;100604.94;4980332;28;1232;-89
2022/07/30 07:31:29;;;;;;;;;;;;;;;18.49;88.99;100598.56;4979381;28;1198;-89
2022/07/30 07:33:54;;;;;;;;;;;;;;;18.54;89.18;100605.91;4978212;28;1319;-89
2022/07/30 07:36:20;;;;;;;;;;;;;;;18.65;89.94;100607.19;4977670;28;1902;-88
2022/07/30 07:38:49;;;;;;;;;;;;;;;18.74;90.31;100596.88;4977959;28;1347;-88
2022/07/30 07:41:14;;;;;;;;;;;;;;;18.84;91.61;100613.16;4978720;28;1199;-89
2022/07/30 07:43:42;;;;;;;;;;;;;;;18.87;91.62;100606.13;4977914;28;1217;-88
2022/07/30 07:46:15;;;;;;;;;;;;;;;18.89;92.00;100607.41;4977546;28;1573;-88
2022/07/30 07:48:41;;;;;;;;;;;;;;;18.91;92.90;100601.53;4977262;28;1461;-89
2022/07/30 07:51:06;;;;;;;;;;;;;;;18.89;93.54;100601.03;4977223;28;1251;-89
2022/07/30 07:53:32;;;;;;;;;;;;;;;18.89;94.04;100606.59;4977200;28;1213;-89
2022/07/30 07:56:07;;;;;;;;;;;;;;;18.88;92.78;100608.53;4978222;28;1949;-88
2022/07/30 07:58:35;;;;;;;;;;;;;;;18.92;92.85;100597.59;4968877;28;1231;-89
2022/07/30 08:01:02;;;;;;;;;;;;;;;18.95;93.78;100602.50;4977241;28;1273;-89
2022/07/30 08:03:30;;;;;;;;;;;;;;;19.06;92.52;100602.91;4976835;28;1759;-89
2022/07/30 08:06:00;;;;;;;;;;;;;;;19.12;92.74;100601.59;4975671;28;1740;-90
2022/07/30 08:08:25;;;;;;;;;;;;;;;19.26;92.24;100597.41;4977000;28;1221;-89
2022/07/30 08:10:51;;;;;;;;;;;;;;;19.36;92.11;100595.41;4966276;28;1371;-88
2022/07/30 08:13:24;;;;;;;;;;;;;;;19.49;92.43;100595.16;4962379;28;1495;-88
2022/07/30 08:15:56;;;;;;;;;;;;;;;19.62;92.88;100594.09;4977078;28;1961;-88
2022/07/30 08:18:22;;;;;;;;;;;;;;;19.74;91.78;100589.72;4972896;28;1653;-88
2022/07/30 08:20:50;;;;;;;;;;;;;;;19.82;90.40;100586.88;4977824;28;1098;-89
2022/07/30 08:23:25;;;;;;;;;;;;;;;19.85;89.82;100583.44;4976841;28;1275;-89
2022/07/30 08:25:50;;;;;;;;;;;;;;;19.92;90.61;100586.47;4976618;28;1258;-89
2022/07/30 08:28:16;;;;;;;;;;;;;;;19.97;89.59;100594.59;4976671;28;1185;-89
2022/07/30 08:30:44;;;;;;;;;;;;;;;19.92;89.72;100589.25;4976765;28;1346;-89
2022/07/30 08:33:09;;;;;;;;;;;;;;;19.93;89.71;100590.06;4975886;28;1213;-88
2022/07/30 08:35:38;;;;;;;;;;;;;;;19.83;89.57;100585.72;4976776;28;1973;-88
2022/07/30 08:38:05;;;;;;;;;;;;;;;19.88;89.72;100590.28;4976691;28;1354;-88
2022/07/30 08:40:36;;;;;;;;;;;;;;;19.86;89.25;100589.78;4976561;28;1331;-88
2022/07/30 08:43:02;;;;;;;;;;;;;;;19.88;88.20;100579.97;4976365;28;1314;-89
2022/07/30 08:45:33;;;;;;;;;;;;;;;19.86;90.77;100587.03;4976368;28;1332;-89
2022/07/30 08:48:09;;;;;;;;;;;;;;;19.87;90.23;100586.69;4977024;28;1219;-89
2022/07/30 08:50:34;;;;;;;;;;;;;;;19.79;89.15;100579.25;4976334;28;1220;-88
2022/07/30 08:53:05;;;;;;;;;;;;;;;19.81;85.10;100582.50;4976521;28;1382;-88
2022/07/30 08:55:35;;;;;;;;;;;;;;;19.85;85.10;100591.75;4976905;28;1890;-89
2022/07/30 08:58:01;;;;;;;;;;;;;;;19.81;84.84;100590.84;4976451;28;1314;-89
2022/07/30 09:00:32;;;;;;;;;;;;;;;19.84;86.72;100589.31;4975913;28;1306;-89
2022/07/30 09:03:00;;;;;;;;;;;;;;;19.78;85.83;100591.50;4975698;28;1731;-88
2022/07/30 09:05:25;;;;;;;;;;;;;;;19.71;86.59;100591.25;4976068;28;1214;-88
2022/07/30 09:07:50;;;;;;;;;;;;;;;19.81;87.10;100590.03;4977106;28;791;-88
2022/07/30 09:10:17;;;;;;;;;;;;;;;19.71;82.20;100590.44;4976642;28;1188;-89
2022/07/30 09:12:43;;;;;;;;;;;;;;;19.77;84.82;100595.44;4977390;28;984;-89
2022/07/30 09:15:10;;;;;;;;;;;;;;;19.87;84.70;100591.44;4975728;28;1886;-89
2022/07/30 09:17:48;;;;;;;;;;;;;;;19.91;85.43;100593.16;4975694;28;1374;-88
2022/07/30 09:20:13;;;;;;;;;;;;;;;19.82;82.75;100600.75;4975844;28;1248;-89
2022/07/30 09:22:44;;;;;;;;;;;;;;;19.83;84.37;100599.63;4975762;28;1262;-89
2022/07/30 09:25:09;;;;;;;;;;;;;;;19.88;83.92;100601.38;4976617;28;1791;-89
2022/07/30 09:27:45;;;;;;;;;;;;;;;20.09;83.09;100601.34;4975307;28;1232;-89
2022/07/30 09:30:10;;;;;;;;;;;;;;;20.19;82.40;100606.47;4975244;28;1574;-89
2022/07/30 09:32:54;;;;;;;;;;;;;;;20.24;78.54;100601.53;4975137;28;1318;-89
2022/07/30 09:35:20;;;;;;;;;;;;;;;20.42;82.05;100599.38;4973075;28;1903;-88
2022/07/30 09:37:46;;;;;;;;;;;;;;;20.47;82.78;100599.19;4974828;28;1861;-89
2022/07/30 09:40:12;;;;;;;;;;;;;;;20.41;81.55;100600.56;4984054;28;1298;-89
2022/07/30 09:42:38;;;;;;;;;;;;;;;20.41;82.73;100603.34;4985154;28;1208;-89
2022/07/30 09:45:05;;;;;;;;;;;;;;;20.41;80.87;100600.56;4986901;28;1320;-89
2022/07/30 09:47:32;;;;;;;;;;;;;;;20.54;79.57;100604.16;4989153;28;1405;-89
2022/07/30 09:50:01;;;;;;;;;;;;;;;20.52;82.01;100606.47;4984295;28;1575;-89
2022/07/30 09:52:28;;;;;;;;;;;;;;;20.47;77.53;100596.41;4975820;28;1272;-89
2022/07/30 09:54:53;;;;;;;;;;;;;;;20.62;78.56;100601.28;4977193;28;1965;-88
2022/07/30 09:57:18;;;;;;;;;;;;;;;20.62;78.06;100606.03;4974560;28;1719;-89
2022/07/30 09:59:44;;;;;;;;;;;;;;;20.63;77.88;100605.69;4975011;28;1295;-88
2022/07/30 10:02:09;;;;;;;;;;;;;;;20.69;78.25;100600.72;4971278;28;831;-88
2022/07/30 10:04:34;;;;;;;;;;;;;;;20.68;78.07;100605.47;4971667;28;1251;-90
2022/07/30 10:07:00;;;;;;;;;;;;;;;20.63;75.54;100604.88;4973908;28;1534;-89
2022/07/30 10:09:28;;;;;;;;;;;;;;;20.76;77.58;100601.75;4975715;28;1314;-88
2022/07/30 10:11:55;;;;;;;;;;;;;;;20.76;75.26;100603.72;4974884;28;1322;-88
2022/07/30 10:14:21;;;;;;;;;;;;;;;20.88;75.77;100603.75;4974642;28;1386;-88
2022/07/30 10:16:48;;;;;;;;;;;;;;;20.85;76.68;100600.84;4974766;28;1890;-89
2022/07/30 10:19:13;;;;;;;;;;;;;;;20.89;78.14;100607.34;4974699;28;1173;-89
2022/07/30 10:21:38;;;;;;;;;;;;;;;20.95;78.72;100609.53;4974932;28;1334;-89
2022/07/30 10:24:04;;;;;;;;;;;;;;;20.88;75.59;100605.72;4974440;28;1288;-89
2022/07/30 10:26:32;;;;;;;;;;;;;;;20.86;76.35;100608.03;4974541;28;1188;-89
2022/07/30 10:28:57;;;;;;;;;;;;;;;20.95;79.60;100608.72;4974085;28;1326;-90
2022/07/30 10:31:24;;;;;;;;;;;;;;;21.06;78.15;100596.00;4974678;28;1362;-89
2022/07/30 10:33:49;;;;;;;;;;;;;;;21.15;77.63;100600.28;4975877;28;1265;-89
2022/07/30 10:36:15;;;;;;;;;;;;;;;21.18;75.10;100592.44;4974459;28;1965;-89
2022/07/30 10:38:42;;;;;;;;;;;;;;;21.22;77.71;100596.13;4975069;28;1192;-89
2022/07/30 10:41:29;;;;;;;;;;;;;;;21.08;74.03;100588.09;4975306;28;1264;-89
2022/07/30 10:44:08;;;;;;;;;;;;;;;21.25;74.00;100587.06;4971391;28;1339;-89
2022/07/30 10:46:54;;;;;;;;;;;;;;;21.27;73.50;100593.91;4966498;28;1311;-89
2022/07/30 10:49:20;;;;;;;;;;;;;;;21.36;72.12;100591.78;4975158;28;1354;-89
2022/07/30 10:51:46;;;;;;;;;;;;;;;21.55;71.64;100582.00;4974985;28;1429;-89
2022/07/30 10:54:30;;;;;;;;;;;;;;;21.69;72.97;100590.81;4974300;28;1252;-89
2022/07/30 10:57:21;;;;;;;;;;;;;;;21.77;73.75;100581.50;4974829;28;1967;-87
2022/07/30 10:59:57;;;;;;;;;;;;;;;21.65;72.81;100576.78;4973584;28;1358;-89
2022/07/30 11:02:23;;;;;;;;;;;;;;;21.58;72.66;100592.47;4974219;28;1621;-88
2022/07/30 11:04:48;;;;;;;;;;;;;;;21.51;73.98;100579.94;4976143;28;1741;-90
2022/07/30 11:07:19;;;;;;;;;;;;;;;21.41;75.54;100585.19;4964914;28;1447;-90
2022/07/30 11:09:45;;;;;;;;;;;;;;;21.28;72.64;100578.81;4973081;28;1633;-88
2022/07/30 11:12:10;;;;;;;;;;;;;;;21.26;73.28;100594.28;4979951;28;1474;-89
2022/07/30 11:14:53;;;;;;;;;;;;;;;21.20;74.28;100584.50;4973776;28;1262;-89
2022/07/30 11:17:19;;;;;;;;;;;;;;;21.14;73.71;100598.66;4974239;28;1400;-87
2022/07/30 11:20:08;;;;;;;;;;;;;;;21.16;74.24;100587.16;4974959;28;898;-87
2022/07/30 11:22:37;;;;;;;;;;;;;;;21.21;74.09;100592.53;4964458;28;1467;-88
2022/07/30 11:25:03;;;;;;;;;;;;;;;21.23;74.36;100590.22;4987341;28;1355;-87
2022/07/30 11:27:36;;;;;;;;;;;;;;;21.24;73.61;100586.25;4992560;28;1299;-88
2022/07/30 11:30:03;;;;;;;;;;;;;;;21.29;73.94;100594.38;4993278;28;972;-87
2022/07/30 11:32:32;;;;;;;;;;;;;;;21.28;71.83;100591.91;4976488;28;1388;-88
2022/07/30 11:35:11;;;;;;;;;;;;;;;21.27;72.19;100591.13;4979716;28;1902;-87
2022/07/30 11:37:55;;;;;;;;;;;;;;;21.33;73.50;100583.34;4992936;28;1354;-87
2022/07/30 11:40:22;;;;;;;;;;;;;;;21.38;74.46;100581.13;4994044;28;1315;-87
2022/07/30 11:42:47;;;;;;;;;;;;;;;21.59;71.33;100580.97;4975298;28;1705;-87
2022/07/30 11:45:15;;;;;;;;;;;;;;;21.76;71.37;100582.66;4958954;28;1334;-88
2022/07/30 11:47:48;;;;;;;;;;;;;;;21.77;74.26;100581.50;4973985;28;1033;-86
2022/07/30 11:50:17;;;;;;;;;;;;;;;21.76;74.63;100580.69;4973502;28;1299;-88
2022/07/30 11:52:43;;;;;;;;;;;;;;;21.78;72.65;100574.72;4974022;28;801;-87
2022/07/30 11:55:08;;;;;;;;;;;;;;;21.78;73.49;100574.72;4973042;28;1898;-88
2022/07/30 11:57:40;;;;;;;;;;;;;;;21.88;73.41;100575.03;4972285;28;1332;-87
2022/07/30 12:00:05;;;;;;;;;;;;;;;22.10;76.80;100578.47;4971672;28;1685;-86
2022/07/30 12:02:31;;;;;;;;;;;;;;;22.25;75.26;100575.72;4972235;28;1397;-87
2022/07/30 12:04:56;;;;;;;;;;;;;;;22.38;72.40;100572.84;4970931;28;1314;-86
2022/07/30 12:07:24;;;;;;;;;;;;;;;22.33;73.50;100565.56;4974709;28;992;-86
2022/07/30 12:09:49;;;;;;;;;;;;;;;22.19;72.71;100574.38;4977509;28;893;-87
2022/07/30 12:12:24;;;;;;;;;;;;;;;22.07;72.27;100574.41;4976164;28;1638;-87
2022/07/30 12:14:50;;;;;;;;;;;;;;;21.94;68.97;100575.63;4975675;28;1952;-86
2022/07/30 12:17:15;;;;;;;;;;;;;;;21.84;70.97;100573.34;4976424;28;1240;-87
2022/07/30 12:19:44;;;;;;;;;;;;;;;21.82;70.63;100570.09;4975677;28;1477;-87
2022/07/30 12:22:09;;;;;;;;;;;;;;;21.85;70.00;100577.75;4960287;28;1460;-87
2022/07/30 12:24:34;;;;;;;;;;;;;;;21.88;69.32;100574.25;4975659;28;1295;-86
2022/07/30 12:27:06;;;;;;;;;;;;;;;21.91;70.91;100576.31;4975450;28;769;-86
2022/07/30 12:29:35;;;;;;;;;;;;;;;21.95;69.25;100580.00;4962808;28;1837;-86
2022/07/30 12:32:00;;;;;;;;;;;;;;;22.02;69.78;100583.06;4962512;28;849;-86
2022/07/30 12:34:26;;;;;;;;;;;;;;;22.03;68.08;100587.44;4975507;28;1334;-86
2022/07/30 12:36:51;;;;;;;;;;;;;;;22.05;70.35;100579.53;4977146;28;1927;-88
2022/07/30 12:39:24;;;;;;;;;;;;;;;21.99;69.43;100582.94;4975671;28;1404;-87
2022/07/30 12:41:51;;;;;;;;;;;;;;;21.95;72.48;100587.59;4976336;28;1475;-88
2022/07/30 12:44:35;;;;;;;;;;;;;;;21.89;71.37;100589.78;4975031;28;1403;-87
2022/07/30 12:47:01;;;;;;;;;;;;;;;21.79;72.23;100582.75;4971261;28;1391;-86
2022/07/30 12:49:30;;;;;;;;;;;;;;;21.67;71.56;100587.56;4975089;28;1383;-87
2022/07/30 12:51:55;;;;;;;;;;;;;;;21.64;72.28;100585.47;4974165;28;1217;-87
2022/07/30 12:54:21;;;;;;;;;;;;;;;21.60;71.69;100592.94;4967453;28;1380;-85
2022/07/30 12:56:55;;;;;;;;;;;;;;;21.39;74.29;100593.06;4978431;28;1948;-85
2022/07/30 12:59:21;;;;;;;;;;;;;;;21.22;76.07;100599.72;4980726;28;1212;-85
2022/07/30 13:01:48;;;;;;;;;;;;;;;21.11;77.79;100601.31;4968266;28;1403;-85
2022/07/30 13:04:13;;;;;;;;;;;;;;;21.04;79.11;100607.47;4975732;28;1355;-85
2022/07/30 13:06:39;;;;;;;;;;;;;;;21.01;79.69;100605.38;4979817;28;980;-85
2022/07/30 13:09:04;;;;;;;;;;;;;;;20.95;81.53;100605.94;4979718;28;1347;-85
2022/07/30 13:11:38;;;;;;;;;;;;;;;20.92;81.26;100604.69;4979081;28;1095;-85
2022/07/30 13:14:04;;;;;;;;;;;;;;;20.97;81.19;100601.66;4967134;28;1367;-85
2022/07/30 13:16:30;;;;;;;;;;;;;;;21.02;81.72;100600.59;4978901;28;1906;-84
2022/07/30 13:18:55;;;;;;;;;;;;;;;20.96;82.26;100602.00;4972694;28;1371;-84
2022/07/30 13:21:20;;;;;;;;;;;;;;;21.00;83.64;100600.16;4959377;28;1029;-85
2022/07/30 13:23:45;;;;;;;;;;;;;;;20.97;84.32;100598.06;4964370;28;1552;-85
2022/07/30 13:26:11;;;;;;;;;;;;;;;20.96;85.63;100590.88;4977996;28;1164;-85
2022/07/30 13:28:36;;;;;;;;;;;;;;;21.00;85.79;100586.25;4976732;28;1398;-85
2022/07/30 13:31:01;;;;;;;;;;;;;;;21.02;85.31;100590.28;4974678;28;1683;-85
2022/07/30 13:33:26;;;;;;;;;;;;;;;20.98;86.47;100594.13;4978631;28;1393;-85
2022/07/30 13:35:52;;;;;;;;;;;;;;;20.91;87.49;100602.25;4979847;28;1951;-84
2022/07/30 13:38:17;;;;;;;;;;;;;;;20.90;89.06;100601.44;4995469;28;1299;-85
2022/07/30 13:40:42;;;;;;;;;;;;;;;20.97;88.72;100603.63;4980370;28;1889;-85
2022/07/30 13:43:08;;;;;;;;;;;;;;;20.96;88.40;100605.59;4987856;28;1412;-85
2022/07/30 13:45:33;;;;;;;;;;;;;;;20.90;87.94;100604.22;4990065;28;1531;-85
2022/07/30 13:47:58;;;;;;;;;;;;;;;20.91;88.04;100607.81;4977993;28;890;-86
2022/07/30 13:50:24;;;;;;;;;;;;;;;20.81;87.54;100600.75;4974656;28;1339;-86
2022/07/30 13:52:49;;;;;;;;;;;;;;;20.84;86.91;100596.47;4976956;28;1725;-86
2022/07/30 13:55:14;;;;;;;;;;;;;;;20.88;87.48;100605.72;4973831;28;1950;-87
2022/07/30 13:57:39;;;;;;;;;;;;;;;20.92;87.38;100606.66;4973847;28;1490;-87
2022/07/30 14:00:05;;;;;;;;;;;;;;;20.96;86.85;100599.22;4971526;28;1317;-87
2022/07/30 14:02:31;;;;;;;;;;;;;;;20.97;87.85;100596.09;4969757;28;1594;-86
2022/07/30 14:04:56;;;;;;;;;;;;;;;20.92;87.67;100601.09;4972497;28;1485;-86
2022/07/30 14:07:21;;;;;;;;;;;;;;;20.94;86.67;100599.56;4973185;28;1372;-86
2022/07/30 14:09:46;;;;;;;;;;;;;;;20.96;86.81;100596.44;4974408;28;973;-85